createdAt,value
2017-09-22T00:01:09.131Z,12.49
2017-09-22T00:03:37.894Z,12.47
2017-09-22T00:06:06.646Z,12.44
2017-09-22T00:08:38.854Z,12.43
2017-09-22T00:11:07.560Z,12.41
2017-09-22T00:13:37.119Z,12.39
2017-09-22T00:16:05.687Z,12.38
2017-09-22T00:18:37.953Z,12.36
2017-09-22T00:21:06.686Z,12.33
2017-09-22T00:23:35.388Z,12.32
2017-09-22T00:26:04.121Z,12.31
2017-09-22T00:28:34.808Z,12.29
2017-09-22T00:31:03.855Z,12.27
2017-09-22T00:33:32.603Z,12.26
2017-09-22T00:36:01.335Z,12.24
2017-09-22T00:38:30.254Z,12.21
2017-09-22T00:40:58.941Z,12.20
2017-09-22T00:43:27.752Z,12.16
2017-09-22T00:45:56.502Z,12.15
2017-09-22T00:48:25.276Z,12.12
2017-09-22T00:50:54.093Z,12.10
2017-09-22T00:53:22.812Z,12.09
2017-09-22T00:55:51.624Z,12.07
2017-09-22T00:58:20.431Z,12.07
2017-09-22T01:00:49.168Z,12.04
2017-09-22T01:03:17.977Z,12.03
2017-09-22T01:05:46.788Z,12.01
2017-09-22T01:08:15.543Z,11.99
2017-09-22T01:10:44.282Z,11.98
2017-09-22T01:13:12.994Z,11.96
2017-09-22T01:15:41.855Z,11.95
2017-09-22T01:18:10.580Z,11.92
2017-09-22T01:20:39.358Z,11.89
2017-09-22T01:23:08.103Z,11.89
2017-09-22T01:25:37.379Z,11.88
2017-09-22T01:28:07.994Z,11.85
2017-09-22T01:30:36.759Z,11.84
2017-09-22T01:33:05.622Z,11.83
2017-09-22T01:35:34.377Z,11.80
2017-09-22T01:38:03.150Z,11.78
2017-09-22T01:40:31.885Z,11.75
2017-09-22T01:43:00.625Z,11.74
2017-09-22T01:45:29.346Z,11.72
2017-09-22T01:47:58.147Z,11.70
2017-09-22T01:50:26.878Z,11.67
2017-09-22T01:52:55.673Z,11.68
2017-09-22T01:55:24.425Z,11.66
2017-09-22T01:57:53.128Z,11.64
2017-09-22T02:00:21.943Z,11.60
2017-09-22T02:02:50.699Z,11.59
2017-09-22T02:05:19.445Z,11.57
2017-09-22T02:07:48.250Z,11.55
2017-09-22T02:10:17.027Z,11.53
2017-09-22T02:12:45.790Z,11.50
2017-09-22T02:15:14.464Z,11.47
2017-09-22T02:17:43.186Z,11.45
2017-09-22T02:20:11.991Z,11.43
2017-09-22T02:22:40.720Z,11.40
2017-09-22T02:25:10.317Z,11.41
2017-09-22T02:27:39.158Z,11.38
2017-09-22T02:30:07.880Z,11.36
2017-09-22T02:32:36.694Z,11.35
2017-09-22T02:35:05.463Z,11.32
2017-09-22T02:37:34.272Z,11.31
2017-09-22T02:40:03.071Z,11.30
2017-09-22T02:42:31.840Z,11.28
2017-09-22T02:45:00.597Z,11.25
2017-09-22T02:47:29.409Z,11.24
2017-09-22T02:49:58.119Z,11.23
2017-09-22T02:52:26.932Z,11.22
2017-09-22T02:54:55.692Z,11.22
2017-09-22T02:57:24.481Z,11.20
2017-09-22T02:59:53.303Z,11.19
2017-09-22T03:02:22.045Z,11.15
2017-09-22T03:04:50.785Z,11.11
2017-09-22T03:07:19.497Z,11.12
2017-09-22T03:09:48.360Z,11.14
2017-09-22T03:12:17.065Z,11.13
2017-09-22T03:14:45.925Z,11.08
2017-09-22T03:17:14.699Z,11.09
2017-09-22T03:19:43.525Z,11.08
2017-09-22T03:22:12.342Z,11.06
2017-09-22T03:24:41.124Z,11.06
2017-09-22T03:27:09.884Z,11.05
2017-09-22T03:29:38.636Z,11.03
2017-09-22T03:32:07.397Z,11.01
2017-09-22T03:34:36.230Z,10.99
2017-09-22T03:37:05.020Z,10.99
2017-09-22T03:39:33.800Z,10.93
2017-09-22T03:42:02.606Z,10.94
2017-09-22T03:44:31.322Z,10.90
2017-09-22T03:47:00.081Z,10.89
2017-09-22T03:49:28.810Z,10.87
2017-09-22T03:51:57.516Z,10.85
2017-09-22T03:54:26.276Z,10.84
2017-09-22T03:56:55.045Z,10.83
2017-09-22T03:59:23.762Z,10.81
2017-09-22T04:01:52.580Z,10.79
2017-09-22T04:04:21.378Z,10.77
2017-09-22T04:06:50.237Z,10.77
2017-09-22T04:09:18.998Z,10.73
2017-09-22T04:11:47.792Z,10.70
2017-09-22T04:14:16.512Z,10.68
2017-09-22T04:16:45.267Z,10.67
2017-09-22T04:19:14.392Z,10.64
2017-09-22T04:21:43.173Z,10.63
2017-09-22T04:24:11.953Z,10.59
2017-09-22T04:26:40.532Z,10.59
2017-09-22T04:29:09.241Z,10.58
2017-09-22T04:31:38.077Z,10.56
2017-09-22T04:34:08.502Z,10.55
2017-09-22T04:36:37.238Z,10.51
2017-09-22T04:39:05.700Z,10.51
2017-09-22T04:41:34.411Z,10.51
2017-09-22T04:44:03.131Z,10.49
2017-09-22T04:46:31.897Z,10.47
2017-09-22T04:49:00.801Z,10.47
2017-09-22T04:51:30.126Z,10.46
2017-09-22T04:53:58.904Z,10.44
2017-09-22T04:56:27.576Z,10.43
2017-09-22T04:58:56.334Z,10.42
2017-09-22T05:01:25.075Z,10.42
2017-09-22T05:03:53.794Z,10.42
2017-09-22T05:06:22.598Z,10.41
2017-09-22T05:08:51.404Z,10.40
2017-09-22T05:11:31.371Z,10.38
2017-09-22T05:14:00.444Z,10.37
2017-09-22T05:16:29.236Z,10.38
2017-09-22T05:18:58.076Z,10.37
2017-09-22T05:21:26.901Z,10.36
2017-09-22T05:23:55.827Z,10.36
2017-09-22T05:26:24.755Z,10.35
2017-09-22T05:28:53.526Z,10.35
2017-09-22T05:31:22.384Z,10.35
2017-09-22T05:33:51.324Z,10.35
2017-09-22T05:36:20.076Z,10.35
2017-09-22T05:38:48.955Z,10.35
2017-09-22T05:41:18.209Z,10.34
2017-09-22T05:43:47.175Z,10.34
2017-09-22T05:46:16.003Z,10.34
2017-09-22T05:48:44.828Z,10.34
2017-09-22T05:51:13.795Z,10.35
2017-09-22T05:53:42.598Z,10.35
2017-09-22T05:56:11.439Z,10.36
2017-09-22T05:58:40.391Z,10.34
2017-09-22T06:01:09.351Z,10.33
2017-09-22T06:03:38.166Z,10.34
2017-09-22T06:06:07.068Z,10.33
2017-09-22T06:08:38.541Z,10.35
2017-09-22T06:11:07.344Z,10.35
2017-09-22T06:13:36.163Z,10.34
2017-09-22T06:16:04.881Z,10.35
2017-09-22T06:18:37.273Z,10.36
2017-09-22T06:21:06.040Z,10.40
2017-09-22T06:23:34.895Z,10.41
2017-09-22T06:26:03.746Z,10.42
2017-09-22T06:28:36.073Z,10.45
2017-09-22T06:31:04.907Z,10.49
2017-09-22T06:33:33.724Z,10.53
2017-09-22T06:36:02.516Z,10.55
2017-09-22T06:38:31.438Z,10.55
2017-09-22T06:41:00.316Z,10.56
2017-09-22T06:43:29.192Z,10.65
2017-09-22T06:45:58.061Z,10.67
2017-09-22T06:48:27.002Z,10.69
2017-09-22T06:50:55.908Z,10.72
2017-09-22T06:53:24.830Z,10.75
2017-09-22T06:55:53.801Z,10.80
2017-09-22T06:58:22.621Z,10.83
2017-09-22T07:00:51.580Z,10.86
2017-09-22T07:03:20.477Z,10.91
2017-09-22T07:05:49.359Z,10.97
2017-09-22T07:08:18.227Z,11.01
2017-09-22T07:10:47.070Z,11.05
2017-09-22T07:13:15.939Z,11.10
2017-09-22T07:15:44.892Z,11.14
2017-09-22T07:18:13.733Z,11.16
2017-09-22T07:20:42.608Z,11.24
2017-09-22T07:23:11.549Z,11.28
2017-09-22T07:25:40.438Z,11.34
2017-09-22T07:28:09.300Z,11.37
2017-09-22T07:30:38.187Z,11.42
2017-09-22T07:33:07.082Z,11.47
2017-09-22T07:35:35.947Z,11.52
2017-09-22T07:38:04.909Z,11.57
2017-09-22T07:40:33.768Z,11.61
2017-09-22T07:43:02.586Z,11.67
2017-09-22T07:45:31.500Z,11.71
2017-09-22T07:48:00.426Z,11.77
2017-09-22T07:50:29.516Z,11.81
2017-09-22T07:52:58.370Z,11.86
2017-09-22T07:55:27.414Z,11.90
2017-09-22T07:57:56.244Z,11.95
2017-09-22T08:00:25.105Z,12.01
2017-09-22T08:02:53.940Z,12.04
2017-09-22T08:05:22.918Z,12.10
2017-09-22T08:07:51.763Z,12.15
2017-09-22T08:10:20.658Z,12.21
2017-09-22T08:12:49.466Z,12.26
2017-09-22T08:15:18.295Z,12.30
2017-09-22T08:17:47.252Z,12.35
2017-09-22T08:20:16.100Z,12.41
2017-09-22T08:22:44.861Z,12.46
2017-09-22T08:25:13.668Z,12.52
2017-09-22T08:27:42.535Z,12.57
2017-09-22T08:30:11.329Z,12.63
2017-09-22T08:32:40.167Z,12.68
2017-09-22T08:35:09.081Z,12.73
2017-09-22T08:37:37.924Z,12.80
2017-09-22T08:40:06.809Z,12.87
2017-09-22T08:42:35.508Z,12.93
2017-09-22T08:45:05.585Z,12.99
2017-09-22T08:47:34.457Z,13.04
2017-09-22T08:50:03.390Z,13.08
2017-09-22T08:52:32.402Z,13.14
2017-09-22T08:55:01.228Z,13.20
2017-09-22T08:57:30.134Z,13.27
2017-09-22T08:59:59.013Z,13.35
2017-09-22T09:02:27.869Z,13.42
2017-09-22T09:04:56.703Z,13.48
2017-09-22T09:07:25.545Z,13.55
2017-09-22T09:09:54.399Z,13.64
2017-09-22T09:12:23.349Z,13.69
2017-09-22T09:14:52.345Z,13.76
2017-09-22T09:17:21.284Z,13.81
2017-09-22T09:19:50.154Z,13.86
2017-09-22T09:22:19.054Z,13.92
2017-09-22T09:24:47.951Z,13.95
2017-09-22T09:27:16.823Z,13.98
2017-09-22T09:29:45.578Z,14.03
2017-09-22T09:32:14.503Z,14.07
2017-09-22T09:34:43.455Z,14.14
2017-09-22T09:37:14.141Z,14.17
2017-09-22T09:39:42.961Z,14.23
2017-09-22T09:42:11.771Z,14.27
2017-09-22T09:44:40.699Z,14.34
2017-09-22T09:47:09.639Z,14.38
2017-09-22T09:49:38.526Z,14.43
2017-09-22T09:52:07.454Z,14.43
2017-09-22T09:54:36.366Z,14.46
2017-09-22T09:57:05.209Z,14.49
2017-09-22T09:59:34.126Z,14.54
2017-09-22T10:02:02.960Z,14.56
2017-09-22T10:04:31.731Z,14.58
2017-09-22T10:07:00.362Z,14.61
2017-09-22T10:09:29.187Z,14.65
2017-09-22T10:11:58.050Z,14.70
2017-09-22T10:14:26.881Z,14.74
2017-09-22T10:16:55.718Z,14.80
2017-09-22T10:19:24.878Z,14.81
2017-09-22T10:21:53.905Z,14.83
2017-09-22T10:24:22.514Z,14.85
2017-09-22T10:26:51.362Z,14.89
2017-09-22T10:29:20.161Z,14.91
2017-09-22T10:31:48.948Z,14.96
2017-09-22T10:34:17.747Z,14.96
2017-09-22T10:36:46.618Z,14.99
2017-09-22T10:39:15.454Z,15.01
2017-09-22T10:41:44.284Z,15.01
2017-09-22T10:44:13.091Z,15.04
2017-09-22T10:46:41.839Z,15.06
2017-09-22T10:49:10.679Z,15.08
2017-09-22T10:51:39.409Z,15.14
2017-09-22T10:54:08.182Z,15.19
2017-09-22T10:56:37.015Z,15.22
2017-09-22T10:59:05.894Z,15.24
2017-09-22T11:01:34.760Z,15.21
2017-09-22T11:04:03.514Z,15.24
2017-09-22T11:06:32.353Z,15.27
2017-09-22T11:09:01.142Z,15.30
2017-09-22T11:11:29.900Z,15.35
2017-09-22T11:13:58.773Z,15.38
2017-09-22T11:16:27.612Z,15.44
2017-09-22T11:18:56.422Z,15.47
2017-09-22T11:21:25.149Z,15.50
2017-09-22T11:23:53.996Z,15.53
2017-09-22T11:26:22.737Z,15.54
2017-09-22T11:28:51.559Z,15.60
2017-09-22T11:31:19.198Z,15.60
2017-09-22T11:33:47.218Z,15.67
2017-09-22T11:36:16.003Z,15.75
2017-09-22T11:38:44.729Z,15.73
2017-09-22T11:41:13.540Z,15.73
2017-09-22T11:43:42.398Z,15.73
2017-09-22T11:46:11.256Z,15.72
2017-09-22T11:48:40.012Z,15.76
2017-09-22T11:51:08.792Z,15.73
2017-09-22T11:53:37.534Z,15.74
2017-09-22T11:56:06.296Z,15.73
2017-09-22T11:58:39.226Z,15.78
2017-09-22T12:01:07.983Z,15.85
2017-09-22T12:03:36.701Z,15.96
2017-09-22T12:06:05.418Z,15.98
2017-09-22T12:08:37.016Z,16.02
2017-09-22T12:11:05.759Z,16.13
2017-09-22T12:13:34.541Z,16.12
2017-09-22T12:16:03.268Z,16.19
2017-09-22T12:18:36.542Z,16.17
2017-09-22T12:21:05.302Z,16.24
2017-09-22T12:23:34.168Z,16.27
2017-09-22T12:26:03.289Z,16.27
2017-09-22T12:28:38.420Z,16.27
2017-09-22T12:31:07.215Z,16.26
2017-09-22T12:33:35.938Z,16.24
2017-09-22T12:36:04.563Z,16.30
2017-09-22T12:38:36.225Z,16.27
2017-09-22T12:41:04.998Z,16.30
2017-09-22T12:43:33.794Z,16.31
2017-09-22T12:46:02.596Z,16.31
2017-09-22T12:48:34.766Z,16.33
2017-09-22T12:51:03.509Z,16.33
2017-09-22T12:53:32.269Z,16.33
2017-09-22T12:56:01.003Z,16.34
2017-09-22T12:58:29.867Z,16.36
2017-09-22T13:00:58.599Z,16.37
2017-09-22T13:03:27.222Z,16.38
2017-09-22T13:05:56.060Z,16.41
2017-09-22T13:08:24.744Z,16.45
2017-09-22T13:10:53.442Z,16.47
2017-09-22T13:13:22.530Z,16.50
2017-09-22T13:15:51.354Z,16.52
2017-09-22T13:18:20.096Z,16.56
2017-09-22T13:20:48.875Z,16.61
2017-09-22T13:23:17.610Z,16.72
2017-09-22T13:25:46.447Z,16.85
2017-09-22T13:28:15.197Z,16.92
2017-09-22T13:30:44.026Z,16.93
2017-09-22T13:33:12.784Z,16.99
2017-09-22T13:35:41.506Z,17.07
2017-09-22T13:38:10.246Z,17.13
2017-09-22T13:40:39.145Z,17.09
2017-09-22T13:43:07.855Z,17.13
2017-09-22T13:45:36.532Z,17.14
2017-09-22T13:48:05.340Z,17.22
2017-09-22T13:50:34.105Z,17.21
2017-09-22T13:53:02.915Z,17.22
2017-09-22T13:55:31.773Z,17.22
2017-09-22T13:58:00.790Z,17.25
2017-09-22T14:00:29.520Z,17.28
2017-09-22T14:02:58.430Z,17.32
2017-09-22T14:05:27.165Z,17.35
2017-09-22T14:07:55.909Z,17.40
2017-09-22T14:10:24.771Z,17.43
2017-09-22T14:12:53.574Z,17.45
2017-09-22T14:15:22.256Z,17.48
2017-09-22T14:17:51.097Z,17.47
2017-09-22T14:20:19.904Z,17.49
2017-09-22T14:22:48.646Z,17.54
2017-09-22T14:25:17.459Z,17.55
2017-09-22T14:27:46.396Z,17.53
2017-09-22T14:30:15.215Z,17.53
2017-09-22T14:32:44.015Z,17.54
2017-09-22T14:35:12.795Z,17.53
2017-09-22T14:37:41.608Z,17.54
2017-09-22T14:40:10.333Z,17.55
2017-09-22T14:42:39.103Z,17.56
2017-09-22T14:45:07.869Z,17.56
2017-09-22T14:47:36.713Z,17.57
2017-09-22T14:50:05.469Z,17.58
2017-09-22T14:52:34.194Z,17.56
2017-09-22T14:55:02.994Z,17.54
2017-09-22T14:57:31.739Z,17.54
2017-09-22T15:00:00.496Z,17.52
2017-09-22T15:02:29.265Z,17.50
2017-09-22T15:04:58.163Z,17.49
2017-09-22T15:07:26.919Z,17.48
2017-09-22T15:09:55.739Z,17.46
2017-09-22T15:12:24.525Z,17.45
2017-09-22T15:14:53.316Z,17.43
2017-09-22T15:17:22.186Z,17.43
2017-09-22T15:19:51.039Z,17.41
2017-09-22T15:22:19.945Z,17.37
2017-09-22T15:24:48.770Z,17.35
2017-09-22T15:27:17.523Z,17.33
2017-09-22T15:29:46.360Z,17.31
2017-09-22T15:32:15.191Z,17.28
2017-09-22T15:34:44.103Z,17.26
2017-09-22T15:37:12.886Z,17.23
2017-09-22T15:39:41.689Z,17.18
2017-09-22T15:42:10.538Z,17.16
2017-09-22T15:44:39.311Z,17.12
2017-09-22T15:47:08.257Z,17.09
2017-09-22T15:49:37.095Z,17.07
2017-09-22T15:52:06.104Z,17.05
2017-09-22T15:54:34.982Z,17.03
2017-09-22T15:57:03.830Z,17.00
2017-09-22T15:59:32.577Z,16.97
2017-09-22T16:02:01.438Z,16.94
2017-09-22T16:04:30.266Z,16.92
2017-09-22T16:06:59.243Z,16.91
2017-09-22T16:09:28.162Z,16.88
2017-09-22T16:11:57.019Z,16.85
2017-09-22T16:14:25.776Z,16.82
2017-09-22T16:16:54.494Z,16.79
2017-09-22T16:19:23.318Z,16.75
2017-09-22T16:21:52.031Z,16.70
2017-09-22T16:24:20.824Z,16.68
2017-09-22T16:26:49.674Z,16.65
2017-09-22T16:29:18.532Z,16.62
2017-09-22T16:31:47.429Z,16.58
2017-09-22T16:34:16.285Z,16.55
2017-09-22T16:36:45.278Z,16.51
2017-09-22T16:39:14.205Z,16.48
2017-09-22T16:41:43.352Z,16.46
2017-09-22T16:44:12.250Z,16.43
2017-09-22T16:46:41.103Z,16.40
2017-09-22T16:49:14.098Z,16.36
2017-09-22T16:51:42.913Z,16.33
2017-09-22T16:54:11.887Z,16.30
2017-09-22T16:56:40.740Z,16.27
2017-09-22T16:59:09.630Z,16.25
2017-09-22T17:01:38.520Z,16.21
2017-09-22T17:04:07.518Z,16.18
2017-09-22T17:06:36.438Z,16.15
2017-09-22T17:09:04.882Z,16.12
2017-09-22T17:11:33.860Z,16.09
2017-09-22T17:14:02.820Z,16.06
2017-09-22T17:16:33.129Z,16.03
2017-09-22T17:19:02.208Z,16.00
2017-09-22T17:21:31.245Z,15.97
2017-09-22T17:24:00.223Z,15.94
2017-09-22T17:26:29.329Z,15.91
2017-09-22T17:28:58.238Z,15.87
2017-09-22T17:31:27.285Z,15.85
2017-09-22T17:33:57.431Z,15.82
2017-09-22T17:36:27.309Z,15.79
2017-09-22T17:38:57.485Z,15.77
2017-09-22T17:41:26.745Z,15.75
2017-09-22T17:43:55.656Z,15.72
2017-09-22T17:46:24.764Z,15.69
2017-09-22T17:48:53.860Z,15.67
2017-09-22T17:51:23.674Z,15.65
2017-09-22T17:56:37.816Z,15.60
2017-09-22T17:59:06.912Z,15.58
2017-09-22T18:01:36.546Z,15.56
2017-09-22T18:04:06.562Z,15.55
2017-09-22T18:09:18.967Z,15.49
2017-09-22T18:11:48.999Z,15.48
2017-09-22T18:14:19.898Z,15.46
2017-09-22T18:16:55.056Z,15.44
2017-09-22T18:19:29.782Z,15.42
2017-09-22T18:22:06.698Z,15.40
2017-09-22T18:24:39.488Z,15.38
2017-09-22T18:27:16.285Z,15.36
2017-09-22T18:30:02.224Z,15.32
2017-09-22T18:32:31.404Z,15.31
2017-09-22T18:35:00.550Z,15.30
2017-09-22T18:37:37.884Z,15.27
2017-09-22T18:40:11.532Z,15.27
2017-09-22T18:42:53.819Z,15.24
2017-09-22T18:46:52.155Z,15.22
2017-09-22T18:49:26.327Z,15.17
2017-09-22T18:52:11.178Z,15.14
2017-09-22T18:54:45.212Z,15.11
2017-09-22T18:57:14.241Z,15.11
2017-09-22T18:59:46.094Z,15.09
2017-09-22T19:02:46.251Z,15.06
2017-09-22T19:05:17.712Z,15.05
2017-09-22T19:07:46.972Z,15.03
2017-09-22T19:10:15.976Z,15.01
2017-09-22T19:12:44.867Z,14.99
2017-09-22T19:15:13.845Z,14.99
2017-09-22T19:17:45.762Z,14.98
2017-09-22T19:20:16.146Z,14.96
2017-09-22T19:22:47.525Z,14.95
2017-09-22T19:25:16.320Z,14.93
2017-09-22T19:27:45.155Z,14.93
2017-09-22T19:30:13.726Z,14.92
2017-09-22T19:32:42.476Z,14.89
2017-09-22T19:35:11.121Z,14.87
2017-09-22T19:37:39.863Z,14.86
2017-09-22T19:40:08.630Z,14.84
2017-09-22T19:42:37.379Z,14.82
2017-09-22T19:45:06.151Z,14.81
2017-09-22T19:47:34.915Z,14.78
2017-09-22T19:50:03.632Z,14.78
2017-09-22T19:52:32.385Z,14.75
2017-09-22T19:55:01.101Z,14.73
2017-09-22T19:57:29.879Z,14.70
2017-09-22T19:59:58.595Z,14.68
2017-09-22T20:02:27.294Z,14.67
2017-09-22T20:04:56.092Z,14.65
2017-09-22T20:07:24.676Z,14.63
2017-09-22T20:09:53.443Z,14.62
2017-09-22T20:12:22.066Z,14.61
2017-09-22T20:14:50.712Z,14.59
2017-09-22T20:17:19.308Z,14.56
2017-09-22T20:19:48.151Z,14.53
2017-09-22T20:22:16.924Z,14.53
2017-09-22T20:24:47.286Z,14.50
2017-09-22T20:27:16.051Z,14.49
2017-09-22T20:29:44.795Z,14.47
2017-09-22T20:32:13.515Z,14.44
2017-09-22T20:34:42.232Z,14.42
2017-09-22T20:37:10.959Z,14.39
2017-09-22T20:39:39.763Z,14.37
2017-09-22T20:42:08.508Z,14.34
2017-09-22T20:44:37.289Z,14.32
2017-09-22T20:47:06.045Z,14.30
2017-09-22T20:49:34.780Z,14.28
2017-09-22T20:52:03.526Z,14.25
2017-09-22T20:54:32.312Z,14.23
2017-09-22T20:57:01.096Z,14.22
2017-09-22T20:59:29.827Z,14.20
2017-09-22T21:01:58.540Z,14.19
2017-09-22T21:04:27.309Z,14.18
2017-09-22T21:06:56.062Z,14.16
2017-09-22T21:09:24.828Z,14.14
2017-09-22T21:11:53.547Z,14.12
2017-09-22T21:14:22.255Z,14.11
2017-09-22T21:16:51.019Z,14.10
2017-09-22T21:19:19.750Z,14.10
2017-09-22T21:21:48.477Z,14.08
2017-09-22T21:24:17.262Z,14.06
2017-09-22T21:26:46.003Z,14.06
2017-09-22T21:29:14.765Z,14.05
2017-09-22T21:31:43.456Z,14.04
2017-09-22T21:34:12.196Z,14.03
2017-09-22T21:36:41.002Z,14.02
2017-09-22T21:39:09.773Z,14.01
2017-09-22T21:41:38.538Z,13.99
2017-09-22T21:44:07.275Z,13.99
2017-09-22T21:46:35.994Z,13.98
2017-09-22T21:49:04.741Z,13.96
2017-09-22T21:51:33.504Z,13.95
2017-09-22T21:54:02.224Z,13.94
2017-09-22T21:56:30.974Z,13.93
2017-09-22T21:58:59.814Z,13.92
2017-09-22T22:01:28.605Z,13.90
2017-09-22T22:04:02.824Z,13.89
2017-09-22T22:06:36.989Z,13.88
2017-09-22T22:09:05.355Z,13.86
2017-09-22T22:11:34.115Z,13.85
2017-09-22T22:14:02.783Z,13.83
2017-09-22T22:16:31.514Z,13.81
2017-09-22T22:19:00.298Z,13.80
2017-09-22T22:21:29.050Z,13.78
2017-09-22T22:23:57.779Z,13.77
2017-09-22T22:26:26.607Z,13.75
2017-09-22T22:28:55.334Z,13.75
2017-09-22T22:31:24.088Z,13.72
2017-09-22T22:33:52.943Z,13.71
2017-09-22T22:36:27.275Z,13.71
2017-09-22T22:38:55.987Z,13.68
2017-09-22T22:41:24.681Z,13.66
2017-09-22T22:43:53.422Z,13.65
2017-09-22T22:46:22.182Z,13.64
2017-09-22T22:48:50.924Z,13.63
2017-09-22T22:51:19.667Z,13.61
2017-09-22T22:53:48.414Z,13.60
2017-09-22T22:56:17.150Z,13.59
2017-09-22T22:58:45.871Z,13.57
2017-09-22T23:01:14.664Z,13.54
2017-09-22T23:03:43.391Z,13.53
2017-09-22T23:06:12.498Z,13.50
2017-09-22T23:08:41.256Z,13.48
2017-09-22T23:11:09.972Z,13.47
2017-09-22T23:13:38.732Z,13.45
2017-09-22T23:16:07.458Z,13.42
2017-09-22T23:18:37.333Z,13.42
2017-09-22T23:21:06.070Z,13.40
2017-09-22T23:23:34.853Z,13.38
2017-09-22T23:26:03.613Z,13.36
2017-09-22T23:28:37.159Z,13.35
2017-09-22T23:31:05.920Z,13.33
2017-09-22T23:33:34.630Z,13.32
2017-09-22T23:36:03.412Z,13.31
2017-09-22T23:38:36.076Z,13.31
2017-09-22T23:41:04.817Z,13.29
2017-09-22T23:43:33.567Z,13.28
2017-09-22T23:46:02.357Z,13.25
2017-09-22T23:48:33.641Z,13.24
2017-09-22T23:51:02.459Z,13.24
2017-09-22T23:53:31.185Z,13.22
2017-09-22T23:55:59.805Z,13.21
2017-09-22T23:58:28.569Z,13.20
